Time;durP1;ratioP1;P1;durP2;ratioP2;P2;SDS_P1;SDS_P2;PMS_P1;PMS_P2;Temp;Humidity;BMP_temperature;BMP_pressure;BME280_temperature;BME280_humidity;BME280_pressure;Samples;Min_cycle;Max_cycle;Signal;HPM_P1;HPM_P2
2022/06/26 00:02:22;;;;;;;4.55;2.88;;;18.70;99.90;;;;;;6168560;23;20449;-89
2022/06/26 00:04:48;;;;;;;6.30;3.55;;;18.60;99.90;;;;;;6192999;23;20075;-89
2022/06/26 00:07:15;;;;;;;5.15;3.47;;;18.60;99.90;;;;;;6192675;23;20012;-89
2022/06/26 00:09:44;;;;;;;4.68;3.28;;;18.70;99.90;;;;;;6169219;23;20024;-89
2022/06/26 00:12:10;;;;;;;5.93;2.92;;;18.60;99.90;;;;;;6193872;23;20020;-89
2022/06/26 00:14:36;;;;;;;4.07;3.33;;;18.50;99.90;;;;;;6193477;23;20414;-90
2022/06/26 00:17:02;;;;;;;3.88;3.42;;;18.50;99.90;;;;;;6219047;23;20098;-89
2022/06/26 00:19:33;;;;;;;3.78;3.20;;;18.40;99.90;;;;;;6191383;23;20031;-89
2022/06/26 00:21:59;;;;;;;4.40;3.50;;;18.50;99.90;;;;;;6194327;23;20525;-89
2022/06/26 00:24:27;;;;;;;5.80;3.50;;;18.40;99.90;;;;;;6193141;23;20023;-88
2022/06/26 00:26:55;;;;;;;5.10;4.10;;;18.40;99.90;;;;;;6169919;23;20016;-90
2022/06/26 00:29:21;;;;;;;6.72;4.22;;;18.40;99.90;;;;;;6168621;23;20016;-89
2022/06/26 00:31:47;;;;;;;5.28;4.40;;;18.40;99.90;;;;;;6168997;23;20020;-89
2022/06/26 00:34:13;;;;;;;5.05;3.75;;;18.30;99.90;;;;;;6193713;23;20361;-89
2022/06/26 00:36:39;;;;;;;6.05;3.47;;;18.20;99.90;;;;;;6193209;23;20020;-89
2022/06/26 00:39:07;;;;;;;6.95;5.07;;;17.30;99.90;;;;;;6193676;23;20016;-89
2022/06/26 00:41:34;;;;;;;4.78;4.32;;;18.30;99.90;;;;;;6193027;23;20101;-90
2022/06/26 00:44:00;;;;;;;5.07;3.80;;;18.40;99.90;;;;;;6193212;23;20016;-90
2022/06/26 00:46:26;;;;;;;5.95;3.72;;;17.60;99.90;;;;;;6168130;23;20055;-89
2022/06/26 00:48:53;;;;;;;5.05;4.07;;;18.30;99.90;;;;;;6192478;23;20020;-89
2022/06/26 00:51:19;;;;;;;;;;;18.30;99.90;;;;;;6168314;23;20056;-90
2022/06/26 00:53:47;;;;;;;12.40;6.82;;;18.20;99.90;;;;;;6193498;23;19915;-90
2022/06/26 00:56:16;;;;;;;7.07;4.53;;;18.20;99.90;;;;;;6194053;23;20019;-90
2022/06/26 00:58:45;;;;;;;5.30;4.15;;;18.30;99.90;;;;;;6192206;23;20051;-88
2022/06/26 01:01:11;;;;;;;5.43;4.63;;;18.20;99.90;;;;;;6168031;23;20027;-90
2022/06/26 01:03:39;;;;;;;11.85;5.82;;;18.30;99.90;;;;;;6217394;23;20020;-89
2022/06/26 01:06:08;;;;;;;6.65;5.32;;;18.30;99.90;;;;;;6193002;23;20113;-89
2022/06/26 01:08:37;;;;;;;8.43;6.35;;;18.40;99.90;;;;;;6216901;23;20016;-90
2022/06/26 01:11:17;;;;;;;9.63;5.78;;;18.40;99.90;;;;;;6217768;23;20020;-89
2022/06/26 01:13:45;;;;;;;7.50;6.05;;;18.40;99.90;;;;;;6192433;23;20050;-90
2022/06/26 01:16:16;;;;;;;7.50;5.30;;;18.40;99.90;;;;;;6193086;23;20016;-89
2022/06/26 01:18:44;;;;;;;10.77;6.30;;;18.30;99.90;;;;;;6191697;23;20016;-89
2022/06/26 01:21:12;;;;;;;8.13;6.90;;;18.20;99.90;;;;;;6217652;23;20020;-89
2022/06/26 01:23:38;;;;;;;8.90;6.13;;;18.20;99.90;;;;;;6192457;23;20055;-89
2022/06/26 01:26:04;;;;;;;6.85;5.85;;;18.30;99.90;;;;;;6218169;23;20456;-88
2022/06/26 01:28:30;;;;;;;8.80;5.70;;;18.30;99.90;;;;;;6192295;23;20084;-89
2022/06/26 01:30:56;;;;;;;8.35;5.68;;;18.40;99.90;;;;;;6166753;23;20075;-89
2022/06/26 01:33:22;;;;;;;7.15;5.45;;;18.30;99.90;;;;;;6192423;23;20020;-90
2022/06/26 01:35:48;;;;;;;7.15;5.90;;;18.50;99.90;;;;;;6193170;23;20020;-89
2022/06/26 01:38:22;;;;;;;6.10;5.55;;;18.40;99.90;;;;;;6193167;23;20474;-89
2022/06/26 01:40:50;;;;;;;7.32;5.13;;;18.40;99.90;;;;;;6192121;23;20016;-89
2022/06/26 01:43:18;;;;;;;4.88;4.43;;;18.00;99.90;;;;;;6193017;23;20020;-89
2022/06/26 01:45:47;;;;;;;8.75;5.88;;;18.40;99.90;;;;;;6192554;23;20114;-89
2022/06/26 01:48:14;;;;;;;6.65;4.85;;;18.40;99.90;;;;;;6192970;23;20016;-89
2022/06/26 01:50:39;;;;;;;;;;;18.40;99.90;;;;;;6192377;23;20440;-89
2022/06/26 01:53:06;;;;;;;5.45;4.22;;;18.40;99.90;;;;;;6192858;23;19966;-89
2022/06/26 01:55:35;;;;;;;7.20;5.15;;;18.40;99.90;;;;;;6192364;23;20023;-90
2022/06/26 01:58:01;;;;;;;9.30;5.35;;;18.50;99.90;;;;;;6192938;23;20015;-89
2022/06/26 02:00:32;;;;;;;8.77;5.43;;;18.40;99.90;;;;;;6192013;23;20337;-89
2022/06/26 02:03:00;;;;;;;12.43;5.38;;;18.40;99.90;;;;;;6192784;23;20016;-89
2022/06/26 02:05:26;;;;;;;6.60;5.88;;;18.50;99.90;;;;;;6217865;23;20314;-90
2022/06/26 02:07:52;;;;;;;6.65;4.75;;;18.50;99.90;;;;;;6191933;23;20016;-89
2022/06/26 02:15:53;;;;;;;7.00;5.18;;;18.50;99.90;;;;;;6198689;23;20103;-90
2022/06/26 02:18:20;;;;;;;8.02;5.07;;;18.50;99.90;;;;;;6169954;23;20027;-89
2022/06/26 02:20:46;;;;;;;5.97;5.00;;;18.40;99.90;;;;;;6218217;23;20059;-88
2022/06/26 02:23:13;;;;;;;6.30;5.00;;;18.50;99.90;;;;;;6194762;23;20022;-88
2022/06/26 02:25:41;;;;;;;7.35;5.28;;;18.50;99.90;;;;;;6193997;23;20035;-88
2022/06/26 02:28:08;;;;;;;8.75;5.75;;;19.20;99.90;;;;;;6194605;23;20012;-88
2022/06/26 02:30:34;;;;;;;;;;;18.50;99.90;;;;;;6193549;23;20020;-89
2022/06/26 02:33:03;;;;;;;7.05;6.05;;;18.60;99.90;;;;;;6219821;23;19949;-90
2022/06/26 02:35:29;;;;;;;7.90;6.43;;;18.40;99.90;;;;;;6194582;23;20016;-89
2022/06/26 02:37:57;;;;;;;;;;;18.30;99.90;;;;;;6194926;23;20024;-89
2022/06/26 02:40:25;;;;;;;9.00;5.47;;;18.40;99.90;;;;;;6194429;23;20336;-89
2022/06/26 02:42:54;;;;;;;6.47;5.82;;;18.30;99.90;;;;;;6169341;23;20020;-90
2022/06/26 02:45:28;;;;;;;10.57;5.90;;;18.40;99.90;;;;;;6194277;23;20082;-88
2022/06/26 02:47:54;;;;;;;7.05;5.53;;;18.30;99.90;;;;;;6193478;23;20012;-89
2022/06/26 02:50:20;;;;;;;4.68;4.20;;;18.20;99.90;;;;;;6194322;23;20023;-89
2022/06/26 02:52:46;;;;;;;6.95;4.82;;;18.20;99.90;;;;;;6193490;23;20020;-88
2022/06/26 02:55:12;;;;;;;7.35;5.40;;;18.20;99.90;;;;;;6194715;23;20093;-89
2022/06/26 02:57:38;;;;;;;;;;;18.10;99.90;;;;;;6194697;23;20020;-89
2022/06/26 03:00:06;;;;;;;8.05;5.07;;;18.00;99.90;;;;;;6194203;23;19923;-88
2022/06/26 03:02:32;;;;;;;7.32;5.45;;;16.90;99.90;;;;;;6194511;23;20440;-89
2022/06/26 03:05:06;;;;;;;7.75;5.57;;;17.90;99.90;;;;;;6168939;23;20024;-89
2022/06/26 03:07:31;;;;;;;5.80;5.18;;;17.90;99.90;;;;;;6194611;23;20016;-89
2022/06/26 03:09:57;;;;;;;5.63;4.68;;;17.20;99.90;;;;;;6193326;23;20100;-89
2022/06/26 03:12:26;;;;;;;7.65;4.82;;;17.80;99.90;;;;;;6194587;23;20035;-89
2022/06/26 03:14:57;;;;;;;4.38;3.95;;;17.90;99.90;;;;;;6193882;23;20016;-90
2022/06/26 03:17:22;;;;;;;5.20;4.32;;;17.90;99.90;;;;;;6194514;23;20099;-89
2022/06/26 03:19:48;;;;;;;3.92;3.53;;;17.70;99.90;;;;;;6193298;23;20109;-89
2022/06/26 03:22:14;;;;;;;4.50;3.50;;;17.80;99.90;;;;;;6194469;23;20016;-89
2022/06/26 03:24:42;;;;;;;4.47;3.53;;;17.80;99.90;;;;;;6193213;23;20103;-89
2022/06/26 03:27:10;;;;;;;4.28;2.97;;;17.70;99.90;;;;;;6194122;23;20023;-90
2022/06/26 03:29:36;;;;;;;3.55;3.00;;;17.70;99.90;;;;;;6193953;23;20456;-91
2022/06/26 03:32:02;;;;;;;3.85;2.95;;;17.80;99.90;;;;;;6168698;23;20020;-89
2022/06/26 03:34:33;;;;;;;3.08;2.70;;;17.70;99.90;;;;;;6194190;23;20383;-90
2022/06/26 03:36:59;;;;;;;3.25;2.92;;;17.70;99.90;;;;;;6169182;23;20125;-89
2022/06/26 03:39:24;;;;;;;5.65;2.47;;;17.60;99.90;;;;;;6169571;23;20016;-88
2022/06/26 03:42:01;;;;;;;3.25;2.75;;;17.60;99.90;;;;;;6193911;23;20012;-89
2022/06/26 03:44:30;;;;;;;3.05;2.42;;;17.50;99.90;;;;;;6194271;23;20078;-89
2022/06/26 03:47:06;;;;;;;3.28;2.45;;;17.60;99.90;;;;;;6193654;23;20096;-89
2022/06/26 03:49:32;;;;;;;3.50;2.50;;;17.50;99.90;;;;;;6193964;23;20059;-90
2022/06/26 03:51:58;;;;;;;4.18;2.25;;;17.50;99.90;;;;;;6193649;23;20087;-89
2022/06/26 03:54:27;;;;;;;3.22;2.28;;;17.30;99.90;;;;;;6193772;23;20051;-90
2022/06/26 03:56:57;;;;;;;3.63;2.65;;;17.40;99.90;;;;;;6193092;23;20020;-89
2022/06/26 03:59:23;;;;;;;4.53;2.70;;;17.40;99.90;;;;;;6169436;23;20027;-89
2022/06/26 04:01:58;;;;;;;4.72;2.53;;;17.40;99.90;;;;;;6143502;23;20028;-90
2022/06/26 04:04:24;;;;;;;3.50;2.08;;;17.30;99.90;;;;;;6171356;23;20027;-89
2022/06/26 04:06:52;;;;;;;1.88;1.63;;;17.30;99.90;;;;;;6193152;23;20016;-90
2022/06/26 04:09:23;;;;;;;4.03;1.95;;;17.30;99.90;;;;;;6194056;23;20022;-89
2022/06/26 04:11:51;;;;;;;2.13;1.92;;;17.20;99.90;;;;;;6169399;23;20023;-89
2022/06/26 04:14:17;;;;;;;2.30;1.95;;;17.20;99.90;;;;;;6193955;23;20091;-89
2022/06/26 04:16:43;;;;;;;4.50;2.03;;;17.30;99.90;;;;;;6218582;23;20074;-90
2022/06/26 04:19:09;;;;;;;2.33;2.03;;;17.20;99.90;;;;;;6193470;23;20020;-90
2022/06/26 04:21:38;;;;;;;2.25;1.90;;;17.20;99.90;;;;;;6193570;23;20039;-89
2022/06/26 04:24:06;;;;;;;2.25;1.90;;;16.90;99.90;;;;;;6193292;23;20559;-89
2022/06/26 04:26:41;;;;;;;2.92;1.77;;;17.20;99.90;;;;;;6193732;23;20012;-89
2022/06/26 04:29:07;;;;;;;4.03;1.92;;;17.30;99.90;;;;;;6192775;23;20078;-89
2022/06/26 04:31:33;;;;;;;2.10;1.75;;;17.20;99.90;;;;;;6192616;23;20021;-88
2022/06/26 04:33:59;;;;;;;5.45;2.00;;;17.20;99.90;;;;;;6192531;23;20465;-88
2022/06/26 04:36:27;;;;;;;2.83;1.58;;;17.30;99.90;;;;;;6193266;23;20012;-90
2022/06/26 04:38:53;;;;;;;2.25;1.35;;;17.20;99.90;;;;;;6217872;23;20066;-89
2022/06/26 04:41:31;;;;;;;2.03;1.70;;;17.20;99.90;;;;;;6193281;23;20024;-90
2022/06/26 04:44:11;;;;;;;2.90;1.42;;;17.20;99.90;;;;;;6193292;23;20397;-89
2022/06/26 04:46:42;;;;;;;2.20;1.90;;;17.20;99.90;;;;;;6193633;23;20016;-89
2022/06/26 04:49:22;;;;;;;1.48;1.38;;;17.20;99.90;;;;;;6192969;23;20023;-89
2022/06/26 04:51:50;;;;;;;2.15;1.65;;;17.10;99.90;;;;;;6193070;23;20016;-91
2022/06/26 04:54:15;;;;;;;1.75;1.40;;;17.10;99.90;;;;;;6193584;23;20016;-89
2022/06/26 04:56:41;;;;;;;2.13;1.65;;;17.20;99.90;;;;;;6168813;23;20035;-89
2022/06/26 04:59:07;;;;;;;2.08;1.80;;;17.10;99.90;;;;;;6168339;23;20464;-89
2022/06/26 05:01:33;;;;;;;7.72;1.98;;;17.10;99.90;;;;;;6192975;23;20074;-89
2022/06/26 05:03:59;;;;;;;3.25;1.80;;;17.10;99.90;;;;;;6192933;23;20444;-88
2022/06/26 05:06:27;;;;;;;1.80;1.63;;;17.10;99.90;;;;;;6193601;23;20333;-89
2022/06/26 05:08:53;;;;;;;4.93;2.30;;;17.10;99.90;;;;;;6192722;23;20020;-89
2022/06/26 05:11:29;;;;;;;;;;;;;;;;;;;;;
2022/06/26 05:13:55;;;;;;;2.53;2.00;;;17.10;99.90;;;;;;6218350;23;20023;-89
2022/06/26 05:16:28;;;;;;;2.60;1.92;;;17.20;99.90;;;;;;6193476;23;20052;-89
2022/06/26 05:18:54;;;;;;;2.25;1.77;;;17.20;99.90;;;;;;6192949;23;20020;-89
2022/06/26 05:21:24;;;;;;;2.40;1.85;;;17.20;99.90;;;;;;6192702;23;20039;-90
2022/06/26 05:23:52;;;;;;;5.22;2.30;;;17.30;99.90;;;;;;6192945;23;20099;-89
2022/06/26 05:26:18;;;;;;;3.08;2.08;;;17.30;99.90;;;;;;6193214;23;20020;-88
2022/06/26 05:28:53;;;;;;;2.85;2.03;;;17.40;99.90;;;;;;6193374;23;20012;-89
2022/06/26 05:31:29;;;;;;;3.25;2.20;;;17.40;99.90;;;;;;6167878;23;20396;-90
2022/06/26 05:33:57;;;;;;;4.65;2.08;;;17.40;99.90;;;;;;6217872;23;20078;-90
2022/06/26 05:36:28;;;;;;;2.72;2.35;;;17.40;99.90;;;;;;6193150;23;20345;-89
2022/06/26 05:38:54;;;;;;;2.40;2.20;;;17.80;99.90;;;;;;6192804;23;20023;-91
2022/06/26 05:41:20;;;;;;;4.00;2.00;;;17.40;99.90;;;;;;6167668;23;20345;-89
2022/06/26 05:43:45;;;;;;;3.58;2.70;;;17.40;99.90;;;;;;6193543;23;20020;-89
2022/06/26 05:46:14;;;;;;;3.03;2.72;;;17.40;99.90;;;;;;6191975;23;20016;-89
2022/06/26 05:48:44;;;;;;;4.05;3.58;;;16.70;99.90;;;;;;6193008;23;20016;-90
2022/06/26 05:51:12;;;;;;;3.72;3.13;;;17.60;99.90;;;;;;6191905;23;20077;-90
2022/06/26 05:53:38;;;;;;;4.93;3.40;;;17.50;99.90;;;;;;6192960;23;20012;-90
2022/06/26 05:56:05;;;;;;;4.38;3.28;;;17.40;99.90;;;;;;6167960;23;20027;-90
2022/06/26 05:58:31;;;;;;;;;;;17.40;99.90;;;;;;6193423;23;20012;-90
2022/06/26 06:00:57;;;;;;;3.85;2.85;;;16.50;99.90;;;;;;6168207;23;20351;-92
2022/06/26 06:03:31;;;;;;;5.05;3.85;;;17.50;99.90;;;;;;6169298;23;20017;-90
2022/06/26 06:05:57;;;;;;;6.82;4.07;;;17.50;99.90;;;;;;6192864;23;20016;-90
2022/06/26 06:08:26;;;;;;;4.60;3.47;;;17.50;99.90;;;;;;6199990;23;20461;-90
2022/06/26 06:10:58;;;;;;;5.82;4.60;;;17.70;99.90;;;;;;6193322;23;20020;-90
2022/06/26 06:13:32;;;;;;;5.30;4.18;;;17.50;99.90;;;;;;6168755;23;20020;-90
2022/06/26 06:15:58;;;;;;;4.85;4.10;;;17.50;99.90;;;;;;6192849;23;20445;-92
2022/06/26 06:18:28;;;;;;;5.65;4.30;;;17.60;99.90;;;;;;6192731;23;20074;-90
2022/06/26 06:20:54;;;;;;;7.32;4.88;;;17.60;99.90;;;;;;6193267;23;20020;-91
2022/06/26 06:23:20;;;;;;;7.13;4.38;;;17.60;99.90;;;;;;6191753;23;20024;-90
2022/06/26 06:25:50;;;;;;;6.63;4.28;;;17.70;99.90;;;;;;6193825;23;20422;-90
2022/06/26 06:28:20;;;;;;;5.43;4.25;;;17.80;99.90;;;;;;6192643;23;20023;-89
2022/06/26 06:30:55;;;;;;;7.00;4.18;;;17.80;99.90;;;;;;6192754;23;20459;-89
2022/06/26 06:33:23;;;;;;;5.97;3.95;;;17.90;99.90;;;;;;6162156;23;20088;-90
2022/06/26 06:35:54;;;;;;;5.82;4.72;;;18.00;99.90;;;;;;6138339;23;20127;-90
2022/06/26 06:38:26;;;;;;;8.48;4.43;;;17.20;99.90;;;;;;6139553;23;20564;-90
2022/06/26 06:40:52;;;;;;;8.98;5.32;;;18.00;99.90;;;;;;6163202;23;20017;-90
2022/06/26 06:43:23;;;;;;;6.90;5.05;;;18.10;99.90;;;;;;6161992;23;20029;-91
2022/06/26 06:45:52;;;;;;;7.13;6.07;;;18.10;99.90;;;;;;6162711;23;20341;-88
2022/06/26 06:48:21;;;;;;;11.85;6.35;;;18.20;99.90;;;;;;6163529;23;20048;-88
2022/06/26 06:50:46;;;;;;;10.38;5.50;;;18.10;99.90;;;;;;6138682;23;20096;-88
2022/06/26 06:53:12;;;;;;;9.05;5.50;;;18.10;99.90;;;;;;6161770;23;20059;-88
2022/06/26 06:55:38;;;;;;;10.35;5.90;;;18.10;99.90;;;;;;6187782;23;20499;-88
2022/06/26 06:58:13;;;;;;;10.05;6.38;;;18.10;99.90;;;;;;6162595;23;20044;-91
2022/06/26 07:00:45;;;;;;;8.43;6.93;;;18.20;99.90;;;;;;6163956;23;20052;-88
2022/06/26 07:03:10;;;;;;;10.77;6.55;;;18.10;99.90;;;;;;6163796;23;20016;-88
2022/06/26 07:05:36;;;;;;;8.00;6.30;;;17.30;99.90;;;;;;6140149;23;20074;-89
2022/06/26 07:08:02;;;;;;;10.52;6.13;;;18.10;99.90;;;;;;6163351;23;20020;-92
2022/06/26 07:10:35;;;;;;;11.80;7.40;;;18.20;99.90;;;;;;6160653;23;20012;-90
2022/06/26 07:13:06;;;;;;;11.55;7.18;;;18.30;99.90;;;;;;6164804;23;20519;-87
2022/06/26 07:15:32;;;;;;;11.15;7.40;;;17.90;99.90;;;;;;6164261;23;20027;-90
2022/06/26 07:18:08;;;;;;;;;;;;;;;;;;;;;
2022/06/26 07:20:34;;;;;;;7.50;6.17;;;18.60;99.90;;;;;;6189469;23;20337;-89
2022/06/26 07:23:01;;;;;;;6.93;6.22;;;18.70;99.90;;;;;;6163231;23;20021;-89
2022/06/26 07:25:33;;;;;;;10.95;6.97;;;18.70;99.90;;;;;;6213476;23;20099;-89
2022/06/26 07:27:59;;;;;;;11.15;7.00;;;18.70;99.90;;;;;;6188794;23;20025;-89
2022/06/26 07:30:25;;;;;;;11.55;7.75;;;18.70;99.90;;;;;;6139168;23;20100;-89
2022/06/26 07:32:56;;;;;;;8.27;7.05;;;18.50;99.90;;;;;;6207865;23;20381;-90
2022/06/26 07:35:24;;;;;;;12.88;7.80;;;18.80;99.90;;;;;;6164575;23;20027;-89
2022/06/26 07:37:50;;;;;;;10.60;6.65;;;18.90;99.90;;;;;;6188763;23;20021;-90
2022/06/26 07:40:15;;;;;;;12.15;7.35;;;19.10;99.90;;;;;;6188180;23;20017;-90
2022/06/26 07:42:41;;;;;;;12.07;7.53;;;19.20;99.90;;;;;;6164200;23;20009;-89
2022/06/26 07:45:10;;;;;;;10.85;6.95;;;19.30;99.90;;;;;;6164288;23;20086;-92
2022/06/26 07:47:36;;;;;;;11.30;6.63;;;19.30;99.90;;;;;;6164158;23;20016;-88
2022/06/26 07:50:01;;;;;;;9.27;6.57;;;19.40;99.90;;;;;;6187661;23;20503;-87
2022/06/26 07:52:42;;;;;;;9.85;7.03;;;19.30;99.90;;;;;;6163383;23;20021;-89
2022/06/26 07:55:08;;;;;;;9.85;6.18;;;19.20;99.90;;;;;;6165993;23;20052;-88
2022/06/26 07:57:44;;;;;;;13.20;7.43;;;19.20;99.90;;;;;;6213483;23;20401;-93
2022/06/26 08:00:10;;;;;;;11.32;7.22;;;19.30;99.90;;;;;;6214240;23;20323;-87
2022/06/26 08:02:36;;;;;;;10.43;6.68;;;19.50;99.90;;;;;;6188763;23;20013;-88
2022/06/26 08:05:02;;;;;;;12.40;6.95;;;19.50;99.90;;;;;;6188703;23;20511;-86
2022/06/26 08:07:28;;;;;;;6.63;5.75;;;19.40;99.90;;;;;;6187722;23;20024;-86
2022/06/26 08:09:54;;;;;;;;;;;19.40;99.90;;;;;;6187915;23;20409;-86
2022/06/26 08:12:22;;;;;;;6.45;5.82;;;19.20;99.90;;;;;;6212353;23;20039;-86
2022/06/26 08:14:48;;;;;;;10.15;6.00;;;19.20;99.90;;;;;;6188387;23;20395;-91
2022/06/26 08:17:14;;;;;;;9.68;6.20;;;19.20;99.90;;;;;;6187628;23;20052;-88
2022/06/26 08:19:40;;;;;;;7.65;5.80;;;19.10;99.90;;;;;;6187970;23;20104;-87
2022/06/26 08:22:06;;;;;;;7.18;5.75;;;19.50;99.90;;;;;;6187302;23;20422;-88
2022/06/26 08:24:49;;;;;;;7.60;6.15;;;19.20;99.90;;;;;;6212067;23;20457;-87
2022/06/26 08:27:15;;;;;;;8.30;5.00;;;19.10;99.90;;;;;;6186875;23;20017;-88
2022/06/26 08:29:41;;;;;;;6.50;4.93;;;19.30;99.90;;;;;;6188127;23;20437;-87
2022/06/26 08:32:07;;;;;;;7.85;6.00;;;19.40;99.90;;;;;;6187266;23;20016;-87
2022/06/26 08:34:33;;;;;;;5.70;4.97;;;19.50;99.90;;;;;;6162547;23;20047;-87
2022/06/26 08:36:59;;;;;;;5.50;4.50;;;19.50;99.90;;;;;;6213053;23;20472;-88
2022/06/26 08:39:35;;;;;;;;;;;;;;;;;;;;;
2022/06/26 08:42:02;;;;;;;5.33;4.17;;;19.70;99.90;;;;;;6212558;23;20016;-88
2022/06/26 08:44:29;;;;;;;5.15;4.07;;;19.80;99.90;;;;;;6186258;23;20249;-90
2022/06/26 08:46:57;;;;;;;5.38;4.68;;;19.80;99.90;;;;;;6187330;23;20013;-89
2022/06/26 08:49:26;;;;;;;7.75;4.40;;;21.00;99.90;;;;;;6186785;23;20024;-89
2022/06/26 08:51:53;;;;;;;17.88;4.00;;;20.00;99.90;;;;;;6187899;23;20020;-89
2022/06/26 08:54:19;;;;;;;4.05;2.72;;;20.00;99.90;;;;;;6186980;23;20117;-87
2022/06/26 08:56:48;;;;;;;4.25;3.20;;;20.10;99.90;;;;;;6188250;23;20144;-89
2022/06/26 08:59:18;;;;;;;8.50;3.55;;;20.20;99.90;;;;;;6188487;23;20345;-89
2022/06/26 09:01:56;;;;;;;5.28;3.42;;;20.30;99.90;;;;;;6212630;23;20102;-90
2022/06/26 09:04:22;;;;;;;5.28;4.22;;;20.30;99.90;;;;;;6187153;23;20028;-91
2022/06/26 09:06:51;;;;;;;4.78;4.32;;;20.20;99.90;;;;;;6187352;23;20021;-91
2022/06/26 09:09:27;;;;;;;4.40;3.50;;;20.20;99.90;;;;;;6187970;23;20020;-91
2022/06/26 09:12:03;;;;;;;4.32;3.35;;;20.30;99.90;;;;;;6187564;23;20020;-93
2022/06/26 09:14:30;;;;;;;2.55;2.35;;;20.10;99.90;;;;;;6212759;23;20439;-93
2022/06/26 09:17:05;;;;;;;3.78;2.28;;;20.20;99.90;;;;;;6163034;23;20070;-93
2022/06/26 09:19:43;;;;;;;2.60;2.40;;;20.30;99.90;;;;;;6210914;23;20012;-90
2022/06/26 09:25:14;;;;;;;3.00;1.83;;;20.40;99.90;;;;;;6203982;23;20113;-92
2022/06/26 09:27:39;;;;;;;4.18;2.67;;;20.60;99.90;;;;;;6186127;23;20046;-89
2022/06/26 09:30:06;;;;;;;2.58;2.15;;;20.60;99.90;;;;;;6187595;23;20516;-87
2022/06/26 09:32:32;;;;;;;3.45;2.17;;;20.80;99.90;;;;;;6186549;23;20027;-87
2022/06/26 09:34:58;;;;;;;2.30;1.90;;;20.90;99.90;;;;;;6188033;23;20024;-87
2022/06/26 09:37:24;;;;;;;3.65;2.25;;;20.80;99.90;;;;;;6186396;23;20020;-88
2022/06/26 09:40:00;;;;;;;2.33;2.00;;;20.90;99.90;;;;;;6187881;23;20025;-86
2022/06/26 09:42:27;;;;;;;2.08;1.85;;;20.90;99.90;;;;;;6186437;23;20013;-87
2022/06/26 09:44:59;;;;;;;2.17;1.70;;;21.00;99.90;;;;;;6211504;23;20020;-87
2022/06/26 09:47:29;;;;;;;6.45;3.00;;;20.10;99.90;;;;;;6163671;23;20047;-89
2022/06/26 09:50:00;;;;;;;4.97;1.95;;;21.10;99.90;;;;;;6187700;23;20016;-87
2022/06/26 09:52:30;;;;;;;2.75;2.17;;;21.30;99.90;;;;;;6212000;23;20024;-89
2022/06/26 09:54:58;;;;;;;3.15;2.60;;;21.30;99.90;;;;;;6212565;23;20066;-86
2022/06/26 09:57:26;;;;;;;1.85;1.73;;;21.80;99.90;;;;;;6160487;23;20052;-87
2022/06/26 09:59:53;;;;;;;1.73;1.63;;;20.60;99.90;;;;;;6186346;23;20021;-88
2022/06/26 10:07:51;;;;;;;2.38;2.17;;;21.10;99.90;;;;;;6211446;23;20020;-87
2022/06/26 10:10:20;;;;;;;2.55;2.05;;;21.00;99.90;;;;;;6162533;23;20016;-87
2022/06/26 10:13:00;;;;;;;2.80;1.77;;;20.90;99.90;;;;;;6211488;23;20114;-88
2022/06/26 10:15:35;;;;;;;2.58;1.95;;;20.90;99.90;;;;;;6187071;23;20017;-87
2022/06/26 10:18:38;;;;;;;2.78;2.08;;;20.90;99.90;;;;;;6209347;23;20031;-87
2022/06/26 10:21:10;;;;;;;1.90;1.60;;;20.90;99.90;;;;;;6212026;23;20020;-87
2022/06/26 10:23:38;;;;;;;2.63;1.85;;;21.00;99.90;;;;;;6161814;23;20349;-88
2022/06/26 10:26:20;;;;;;;1.85;1.65;;;21.20;99.90;;;;;;6211602;23;20020;-87
2022/06/26 10:29:01;;;;;;;3.97;2.42;;;21.30;99.90;;;;;;6161765;23;20013;-86
2022/06/26 10:31:50;;;;;;;4.22;1.95;;;21.30;99.90;;;;;;6185967;23;20402;-88
2022/06/26 10:34:19;;;;;;;3.05;2.42;;;21.40;99.90;;;;;;6194026;23;20023;-87
2022/06/26 10:37:15;;;;;;;3.75;2.30;;;21.30;99.90;;;;;;6188449;23;20020;-89
2022/06/26 10:39:42;;;;;;;3.85;2.80;;;21.30;99.90;;;;;;6193187;23;20027;-88
2022/06/26 10:45:20;;;;;;;2.83;1.77;;;21.20;99.90;;;;;;6213473;23;20024;-86
2022/06/26 10:47:49;;;;;;;1.75;1.60;;;21.10;99.90;;;;;;6188008;23;20013;-86
2022/06/26 10:50:27;;;;;;;2.70;2.00;;;21.10;99.90;;;;;;6213282;23;20064;-85
2022/06/26 10:52:59;;;;;;;2.63;1.63;;;21.00;99.90;;;;;;6186763;23;20437;-86
2022/06/26 10:55:25;;;;;;;3.65;2.47;;;21.00;99.90;;;;;;6213537;23;20016;-85
2022/06/26 10:57:50;;;;;;;1.40;1.33;;;20.90;99.90;;;;;;6162028;23;20067;-85
2022/06/26 11:00:16;;;;;;;2.03;1.67;;;20.90;99.90;;;;;;6187798;23;20013;-86
2022/06/26 11:02:44;;;;;;;10.07;2.33;;;20.90;99.90;;;;;;6187766;23;20400;-86
2022/06/26 11:05:11;;;;;;;2.60;1.90;;;20.90;99.90;;;;;;6192256;23;20024;-87
2022/06/26 11:07:48;;;;;;;1.67;1.45;;;20.90;99.90;;;;;;6188007;23;20019;-88
2022/06/26 11:10:21;;;;;;;1.70;1.60;;;20.90;99.90;;;;;;6188233;23;20021;-87
2022/06/26 11:12:49;;;;;;;4.28;1.67;;;20.90;99.90;;;;;;6213029;23;20067;-87
2022/06/26 11:15:34;;;;;;;2.05;1.70;;;21.00;99.90;;;;;;6213124;23;20020;-87
2022/06/26 11:18:05;;;;;;;3.33;1.60;;;21.00;99.90;;;;;;6163593;23;20020;-87
2022/06/26 11:20:51;;;;;;;2.60;1.30;;;21.20;99.90;;;;;;6188109;23;20459;-86
2022/06/26 11:23:27;;;;;;;1.25;1.15;;;21.20;99.90;;;;;;6213784;23;20075;-87
2022/06/26 11:25:59;;;;;;;3.17;2.40;;;21.20;99.90;;;;;;6213108;23;20017;-87
2022/06/26 11:28:42;;;;;;;1.73;1.42;;;21.20;99.90;;;;;;6213610;23;20016;-86
2022/06/26 11:31:19;;;;;;;2.67;1.38;;;21.20;99.90;;;;;;6217354;23;20052;-88
2022/06/26 11:33:45;;;;;;;;;;;21.30;99.90;;;;;;6218494;23;20020;-87
2022/06/26 11:36:15;;;;;;;2.53;1.27;;;21.20;99.90;;;;;;6193531;23;19958;-87
2022/06/26 11:38:48;;;;;;;1.30;1.20;;;21.20;99.90;;;;;;6218031;23;20020;-89
2022/06/26 11:41:14;;;;;;;2.25;1.60;;;21.40;99.90;;;;;;6168248;23;20055;-87
2022/06/26 11:43:48;;;;;;;3.22;2.38;;;21.50;99.90;;;;;;6192642;23;20348;-87
2022/06/26 11:46:14;;;;;;;2.88;2.65;;;21.60;99.90;;;;;;6191276;23;20016;-87
2022/06/26 11:48:40;;;;;;;;;;;21.70;99.90;;;;;;6218462;23;20105;-88
2022/06/26 11:51:06;;;;;;;2.08;1.63;;;21.70;99.90;;;;;;6192311;23;20328;-87
2022/06/26 11:53:33;;;;;;;2.58;1.45;;;21.80;99.90;;;;;;6192738;23;20074;-86
2022/06/26 11:56:00;;;;;;;;;;;21.80;99.90;;;;;;6192479;23;20016;-86
2022/06/26 11:58:32;;;;;;;1.40;1.30;;;21.90;99.90;;;;;;6192892;23;19922;-87
2022/06/26 12:01:18;;;;;;;1.83;1.55;;;21.90;99.90;;;;;;6191117;23;20020;-87
2022/06/26 12:03:47;;;;;;;1.58;1.48;;;21.90;99.90;;;;;;6215710;23;20027;-86
2022/06/26 12:06:50;;;;;;;1.35;1.25;;;22.00;99.90;;;;;;6217788;23;20023;-86
2022/06/26 12:09:28;;;;;;;2.55;1.67;;;21.90;99.90;;;;;;6217442;23;20059;-85
2022/06/26 12:11:55;;;;;;;1.75;1.65;;;21.90;99.90;;;;;;6215845;23;20452;-86
2022/06/26 12:14:25;;;;;;;1.50;1.40;;;21.90;99.90;;;;;;6217627;23;20452;-86
2022/06/26 12:17:07;;;;;;;3.17;1.38;;;21.90;99.90;;;;;;6217587;23;20039;-85
2022/06/26 12:19:39;;;;;;;3.22;1.73;;;21.90;99.90;;;;;;6217399;23;20481;-86
2022/06/26 12:22:05;;;;;;;1.60;1.50;;;21.90;99.90;;;;;;6217403;23;20044;-87
2022/06/26 12:24:31;;;;;;;1.40;1.30;;;22.70;99.90;;;;;;6217370;23;20074;-87
2022/06/26 12:26:57;;;;;;;1.63;1.27;;;22.10;99.90;;;;;;6191313;23;20024;-87
2022/06/26 12:29:24;;;;;;;;;;;21.90;99.90;;;;;;6217626;23;20020;-86
2022/06/26 12:31:54;;;;;;;1.38;1.23;;;21.90;99.90;;;;;;6214942;23;20001;-87
2022/06/26 12:34:20;;;;;;;1.17;1.00;;;22.60;99.90;;;;;;6217170;23;20051;-87
2022/06/26 12:36:45;;;;;;;1.80;1.60;;;21.90;99.90;;;;;;6216860;23;20016;-87
2022/06/26 12:39:11;;;;;;;1.33;1.20;;;21.90;99.90;;;;;;6166807;23;20024;-87
2022/06/26 12:41:38;;;;;;;3.40;1.63;;;21.90;99.90;;;;;;6216499;23;20024;-86
2022/06/26 12:44:04;;;;;;;1.85;1.75;;;21.90;99.90;;;;;;6217041;23;20392;-86
2022/06/26 12:46:31;;;;;;;5.25;2.17;;;21.90;99.90;;;;;;6217690;23;20016;-85
2022/06/26 12:48:58;;;;;;;2.55;1.60;;;21.90;99.90;;;;;;6192643;23;20028;-88
2022/06/26 12:51:26;;;;;;;2.15;1.30;;;21.90;99.90;;;;;;6216740;23;20069;-88
2022/06/26 12:53:53;;;;;;;2.13;1.55;;;21.80;99.90;;;;;;6191447;23;20012;-90
2022/06/26 12:56:21;;;;;;;2.15;1.40;;;21.70;99.90;;;;;;6216618;23;20703;-88
2022/06/26 12:58:47;;;;;;;2.33;1.50;;;20.80;99.90;;;;;;6217017;23;20016;-88
2022/06/26 13:01:13;;;;;;;2.58;1.58;;;21.60;99.90;;;;;;6191543;23;20008;-86
2022/06/26 13:03:39;;;;;;;2.03;1.85;;;21.60;99.90;;;;;;6217204;23;20052;-85
2022/06/26 13:06:07;;;;;;;1.30;1.10;;;21.50;99.90;;;;;;6191466;23;20094;-86
2022/06/26 13:08:34;;;;;;;1.42;1.33;;;21.50;99.90;;;;;;6216446;23;20023;-86
2022/06/26 13:13:48;;;;;;;2.33;1.30;;;21.50;99.90;;;;;;6215868;23;20027;-87
2022/06/26 13:16:13;;;;;;;2.28;1.58;;;21.50;99.90;;;;;;6191304;23;20016;-87
2022/06/26 13:18:39;;;;;;;2.10;1.40;;;21.50;99.90;;;;;;6216514;23;20012;-87
2022/06/26 13:21:05;;;;;;;1.38;1.27;;;21.50;99.90;;;;;;6190658;23;20016;-87
2022/06/26 13:23:31;;;;;;;1.70;1.60;;;21.40;99.90;;;;;;6215634;23;20016;-85